La Cocha, Argentina
Current Conditions -  °F | °C
As of 12:00 PM on Saturday 20 Dec 2014 (Local Time) from SANT Reporting Station
Clear Clear  
Wind Chill: 88°   Ceiling: Unl
Heat Index: 94°   Visibility: 6mi
Dew Point: 72°   Wind: 5mph
Humidity: 58%   Direction: 180°S
Pressure: 29.5"   Gusts: NA
Location:  27.8°S, 65.57°W
Report Text: SANT 201500Z 18004KT CAVOK 31/22 Q0999
Loading
Personal Weather Stations






























Interactive Weather Map New forecast layout! Learn more

10-Day Weather Forecast

Advertisements
Track Severe Weather on mobile